KSLN/SLN METAR and TAF weather

Enter ICAO airport designator
Station Type Date Time Source
KSLN METAR 2021/01/16 02:53 UTC NOAA

KSLN 160253Z 33016KT 10SM OVC034 02/M06 A3000 RMK AO2 SLP169 T00171056 50012 $


Station Type Date Time Source
KSLN Decoded METAR 2021/01/16 02:53 UTC NOAA

SALINA MUNICIPAL AIRPORT, KS, United States (KSLN) 38-47N 97-39W 385M
Jan 15, 2021 - 09:53 PM EST / 2021.01.16 0253 UTC
Wind: from the NNW (330 degrees) at 18 MPH (16 KT):0
Visibility: 10 mile(s):0
Sky conditions: overcast
Temperature: 35.1 F (1.7 C)
Dew Point: 21.9 F (-5.6 C)
Relative Humidity: 58%
Pressure (altimeter): 30 in. Hg (1015 hPa)
Pressure tendency: 0.04 inches (1.2 hPa) higher than three hours ago
ob: KSLN 160253Z 33016KT 10SM OVC034 02/M06 A3000 RMK AO2 SLP169 T00171056 50012
cycle: 3

Station Type Date Time Source
KSLN TAF 2021/01/15 18:22 UTC NOAA

TAF KSLN 151720Z 1518/1618 33034G45KT P6SM OVC040
TEMPO 1518/1522 P6SM -SHSN
FM152200 33028G40KT P6SM OVC045
FM160200 33018G26KT P6SM BKN070
FM161000 31009KT P6SM FEW200

Example: see airport list